Time;durP1;ratioP1;P1;durP2;ratioP2;P2;SDS_P1;SDS_P2;PMS_P1;PMS_P2;Temp;Humidity;BMP_temperature;BMP_pressure;BME280_temperature;BME280_humidity;BME280_pressure;Samples;Min_cycle;Max_cycle;Signal;HPM_P1;HPM_P2
2022/09/26 00:02:00;;;;;;;5.95;1.95;;;10.90;99.90;;;;;;4789758;29;20141;-87
2022/09/26 00:04:27;;;;;;;5.80;1.10;;;10.90;99.90;;;;;;4805094;29;20050;-87
2022/09/26 00:06:55;;;;;;;7.60;1.65;;;10.90;99.90;;;;;;4789625;29;20091;-87
2022/09/26 00:09:23;;;;;;;6.22;1.17;;;10.80;99.90;;;;;;4789125;29;20046;-87
2022/09/26 00:11:49;;;;;;;6.68;1.38;;;10.80;99.90;;;;;;4789748;29;20086;-87
2022/09/26 00:14:19;;;;;;;8.80;1.40;;;10.90;99.90;;;;;;4789340;29;20112;-87
2022/09/26 00:16:45;;;;;;;4.30;1.25;;;10.80;99.90;;;;;;4789730;29;20133;-88
2022/09/26 00:19:11;;;;;;;9.32;1.92;;;10.90;99.90;;;;;;4789982;29;20559;-87
2022/09/26 00:21:36;;;;;;;6.22;1.48;;;10.90;99.90;;;;;;4785471;29;20046;-87
2022/09/26 00:24:02;;;;;;;8.30;1.48;;;10.90;99.90;;;;;;4772166;29;20081;-87
2022/09/26 00:26:30;;;;;;;8.38;1.70;;;10.90;99.90;;;;;;4771757;29;20489;-88
2022/09/26 00:28:57;;;;;;;6.10;1.65;;;10.90;99.90;;;;;;4771424;29;20073;-87
2022/09/26 00:31:27;;;;;;;9.57;1.80;;;10.90;99.90;;;;;;4771353;29;20400;-87
2022/09/26 00:33:53;;;;;;;10.32;1.65;;;10.90;99.90;;;;;;4801399;29;20106;-87
2022/09/26 00:36:19;;;;;;;9.25;1.85;;;10.90;99.90;;;;;;4802831;29;20300;-87
2022/09/26 00:38:45;;;;;;;4.22;1.30;;;10.90;99.90;;;;;;4789805;29;20049;-87
2022/09/26 00:41:11;;;;;;;9.45;1.65;;;10.90;99.90;;;;;;4788987;29;20529;-87
2022/09/26 00:43:43;;;;;;;5.72;1.42;;;10.90;99.90;;;;;;4788492;29;20057;-87
2022/09/26 00:46:31;;;;;;;9.33;1.73;;;10.90;99.90;;;;;;4789455;29;20161;-86
2022/09/26 00:49:04;;;;;;;7.53;1.75;;;10.90;99.90;;;;;;4789258;29;20051;-87
2022/09/26 00:51:33;;;;;;;5.82;1.27;;;10.90;99.90;;;;;;4803097;29;20146;-86
2022/09/26 00:54:01;;;;;;;9.85;1.48;;;10.90;99.90;;;;;;4788967;29;20300;-87
2022/09/26 00:56:32;;;;;;;7.55;1.35;;;10.90;99.90;;;;;;4788667;29;20110;-87
2022/09/26 00:59:03;;;;;;;5.70;1.80;;;10.90;99.90;;;;;;4788997;29;20051;-86
2022/09/26 01:01:29;;;;;;;6.75;1.52;;;10.90;99.90;;;;;;4789111;29;20047;-87
2022/09/26 01:03:57;;;;;;;7.97;1.70;;;10.90;99.90;;;;;;4788730;29;20047;-87
2022/09/26 01:06:22;;;;;;;7.93;1.55;;;10.90;99.90;;;;;;4788929;29;20068;-87
2022/09/26 01:08:56;;;;;;;6.50;1.30;;;10.90;99.90;;;;;;4804356;29;20511;-87
2022/09/26 01:11:22;;;;;;;7.88;1.60;;;10.90;99.90;;;;;;4785493;29;20082;-88
2022/09/26 01:13:51;;;;;;;7.40;1.63;;;10.90;99.90;;;;;;4770977;29;20074;-86
2022/09/26 01:16:17;;;;;;;5.97;1.63;;;10.90;99.90;;;;;;4771073;29;20051;-86
2022/09/26 01:18:44;;;;;;;8.00;1.67;;;10.90;99.90;;;;;;4784634;29;20099;-86
2022/09/26 01:21:20;;;;;;;7.35;1.80;;;10.90;99.90;;;;;;4785603;29;20053;-86
2022/09/26 01:24:04;;;;;;;9.48;1.60;;;10.90;99.90;;;;;;4786098;29;20055;-87
2022/09/26 01:26:42;;;;;;;5.65;1.50;;;10.90;99.90;;;;;;4790172;29;20051;-87
2022/09/26 01:29:38;;;;;;;5.75;1.65;;;10.90;99.90;;;;;;4803475;29;20057;-86
2022/09/26 01:35:28;;;;;;;4.32;1.20;;;10.90;99.90;;;;;;4784596;29;20055;-86
2022/09/26 01:38:22;;;;;;;7.80;1.77;;;10.90;99.90;;;;;;4785323;29;20571;-87
2022/09/26 01:41:04;;;;;;;7.07;1.38;;;10.90;99.90;;;;;;4769050;29;20059;-87
2022/09/26 01:43:46;;;;;;;11.95;2.15;;;10.90;99.90;;;;;;4785168;29;20158;-87
2022/09/26 01:46:30;;;;;;;7.65;1.50;;;10.90;99.90;;;;;;4769390;29;20042;-87
2022/09/26 01:49:07;;;;;;;7.75;2.15;;;10.90;99.90;;;;;;4785146;29;20407;-86
2022/09/26 01:51:49;;;;;;;8.43;2.08;;;10.90;99.90;;;;;;4769823;29;20042;-87
2022/09/26 01:54:21;;;;;;;6.88;1.50;;;10.90;99.90;;;;;;4784274;29;20481;-87
2022/09/26 01:56:50;;;;;;;7.05;1.90;;;10.90;99.90;;;;;;4785485;29;20482;-87
2022/09/26 01:59:22;;;;;;;7.30;1.73;;;10.90;99.90;;;;;;4777179;29;20215;-86
2022/09/26 02:01:55;;;;;;;6.45;1.95;;;10.90;99.90;;;;;;4802463;29;20055;-86
2022/09/26 02:04:26;;;;;;;6.73;1.60;;;10.90;99.90;;;;;;4803226;29;20054;-87
2022/09/26 02:06:59;;;;;;;9.43;1.80;;;10.90;99.90;;;;;;4801025;29;20132;-86
2022/09/26 02:09:32;;;;;;;9.45;1.95;;;10.90;99.90;;;;;;4788583;29;20082;-88
2022/09/26 02:12:02;;;;;;;7.38;1.98;;;10.90;99.90;;;;;;4802532;29;20464;-88
2022/09/26 02:14:33;;;;;;;6.22;1.98;;;10.90;99.90;;;;;;4787437;29;20058;-87
2022/09/26 02:17:10;;;;;;;8.68;1.60;;;10.90;99.90;;;;;;4787575;29;20396;-87
2022/09/26 02:19:45;;;;;;;5.88;1.83;;;10.90;99.90;;;;;;4803092;29;20054;-86
2022/09/26 02:22:11;;;;;;;5.68;1.98;;;10.90;99.90;;;;;;4786531;29;20416;-86
2022/09/26 02:24:36;;;;;;;8.43;2.22;;;10.90;99.90;;;;;;4803526;29;20053;-86
2022/09/26 02:27:03;;;;;;;8.98;2.22;;;10.90;99.90;;;;;;4787282;29;20110;-86
2022/09/26 02:29:29;;;;;;;12.07;3.47;;;10.90;99.90;;;;;;4787031;29;20046;-87
2022/09/26 02:32:01;;;;;;;6.60;2.28;;;10.90;99.90;;;;;;4787689;29;20081;-87
2022/09/26 02:34:28;;;;;;;12.45;2.78;;;10.90;99.90;;;;;;4803380;29;20491;-88
2022/09/26 02:36:56;;;;;;;10.73;2.70;;;10.80;99.90;;;;;;4786489;29;20520;-88
2022/09/26 02:39:24;;;;;;;7.93;2.92;;;10.80;99.90;;;;;;4788960;29;20581;-88
2022/09/26 02:46:28;;;;;;;10.25;2.63;;;10.80;99.90;;;;;;4796970;29;20171;-89
2022/09/26 02:49:59;;;;;;;;;;;;;;;;;;;;;
2022/09/26 02:56:32;;;;;;;;;;;;;;;;;;;;;
2022/09/26 02:59:41;;;;;;;12.07;2.90;;;10.70;99.90;;;;;;4785861;29;20065;-88
2022/09/26 03:05:44;;;;;;;8.82;2.90;;;10.70;99.90;;;;;;4801442;29;20119;-89
2022/09/26 03:08:58;;;;;;;9.55;2.72;;;10.60;99.90;;;;;;4770694;29;20082;-88
2022/09/26 03:11:38;;;;;;;12.82;2.67;;;10.60;99.90;;;;;;4784859;29;20065;-88
2022/09/26 03:14:08;;;;;;;6.30;2.20;;;10.60;99.90;;;;;;4785534;29;20055;-88
2022/09/26 03:16:40;;;;;;;6.03;2.58;;;10.60;99.90;;;;;;4770526;29;20057;-88
2022/09/26 03:19:25;;;;;;;8.70;3.00;;;10.60;99.90;;;;;;4770399;29;20488;-89
2022/09/26 03:22:06;;;;;;;10.30;3.17;;;10.60;99.90;;;;;;4786561;29;20074;-88
2022/09/26 03:24:35;;;;;;;7.65;3.25;;;10.40;99.90;;;;;;4790847;29;20050;-88
2022/09/26 03:27:24;;;;;;;9.20;3.13;;;10.60;99.90;;;;;;4791542;29;20046;-88
2022/09/26 03:30:14;;;;;;;7.72;3.50;;;10.60;99.90;;;;;;4792049;29;20053;-88
2022/09/26 03:32:45;;;;;;;9.23;3.35;;;10.10;99.90;;;;;;4791201;29;20170;-88
2022/09/26 03:35:31;;;;;;;9.05;3.92;;;10.40;99.90;;;;;;4790506;29;20403;-88
2022/09/26 03:38:35;;;;;;;7.57;3.78;;;10.60;99.90;;;;;;4791563;29;20480;-88
2022/09/26 03:41:33;;;;;;;;;;;;;;;;;;;;;
2022/09/26 03:44:53;;;;;;;12.15;3.95;;;10.60;99.90;;;;;;4822842;29;20423;-89
2022/09/26 03:47:33;;;;;;;10.65;4.07;;;10.60;99.90;;;;;;4778794;29;20057;-88
2022/09/26 03:50:05;;;;;;;9.25;4.45;;;10.50;99.90;;;;;;4790529;29;20054;-88
2022/09/26 03:52:53;;;;;;;12.73;5.05;;;10.60;99.90;;;;;;4791317;29;20050;-88
2022/09/26 04:06:09;;;;;;;14.15;5.10;;;10.60;99.90;;;;;;4785360;29;20058;-88
2022/09/26 04:12:38;;;;;;;;;;;;;;;;;;;;;
2022/09/26 04:15:36;;;;;;;11.80;5.95;;;10.60;99.90;;;;;;4801444;29;20058;-88
2022/09/26 04:18:58;;;;;;;;;;;;;;;;;;;;;
2022/09/26 05:30:58;;;;;;;13.32;6.03;;;10.50;99.90;;;;;;4798171;29;20103;-96
2022/09/26 05:33:24;;;;;;;9.68;5.60;;;10.50;99.90;;;;;;4787489;29;20063;-96
2022/09/26 05:35:56;;;;;;;10.95;6.22;;;10.50;99.90;;;;;;4769731;30;20049;-96
2022/09/26 05:38:22;;;;;;;10.35;5.97;;;10.60;99.90;;;;;;4770471;30;20104;-96
2022/09/26 05:40:55;;;;;;;11.55;5.90;;;10.50;99.90;;;;;;4770581;30;20043;-96
2022/09/26 05:43:22;;;;;;;14.27;5.97;;;10.50;99.90;;;;;;4770113;30;20051;-96
2022/09/26 05:45:49;;;;;;;14.75;6.18;;;10.60;99.90;;;;;;4768751;30;20047;-96
2022/09/26 05:48:16;;;;;;;13.07;6.20;;;10.50;99.90;;;;;;4769557;30;20083;-96
2022/09/26 05:50:43;;;;;;;14.45;6.07;;;10.40;99.90;;;;;;4769367;30;20126;-96
2022/09/26 05:53:09;;;;;;;11.00;5.97;;;10.40;99.90;;;;;;4769672;30;20082;-95
2022/09/26 05:55:36;;;;;;;14.50;6.32;;;10.50;99.90;;;;;;4769615;30;20078;-95
2022/09/26 05:58:02;;;;;;;10.88;5.32;;;10.40;99.90;;;;;;4770062;30;20079;-95
2022/09/26 06:00:28;;;;;;;12.00;6.00;;;10.40;99.90;;;;;;4768798;30;20086;-96
2022/09/26 06:02:55;;;;;;;14.13;5.80;;;10.50;99.90;;;;;;4768614;29;20052;-96
2022/09/26 06:05:23;;;;;;;13.27;5.75;;;10.50;99.90;;;;;;4772440;30;20106;-96
2022/09/26 06:07:49;;;;;;;12.35;6.40;;;10.50;99.90;;;;;;4771111;30;20055;-96
2022/09/26 06:10:15;;;;;;;14.18;5.95;;;10.50;99.90;;;;;;4766795;30;20616;-96
2022/09/26 06:12:40;;;;;;;9.18;6.00;;;10.50;99.90;;;;;;4769673;30;20130;-96
2022/09/26 06:15:08;;;;;;;12.60;6.32;;;10.50;99.90;;;;;;4770629;30;20051;-96
2022/09/26 06:17:35;;;;;;;11.30;4.88;;;10.50;99.90;;;;;;4767198;30;20400;-96
2022/09/26 06:20:02;;;;;;;12.45;5.60;;;10.40;99.90;;;;;;4768926;30;20079;-96
2022/09/26 06:22:27;;;;;;;11.82;5.72;;;10.50;99.90;;;;;;4771097;30;20468;-96
2022/09/26 06:24:53;;;;;;;12.82;6.57;;;10.40;99.90;;;;;;4773369;30;20079;-96
2022/09/26 06:27:21;;;;;;;14.13;5.25;;;10.50;99.90;;;;;;4771818;30;20085;-96
2022/09/26 06:29:47;;;;;;;9.45;5.50;;;10.50;99.90;;;;;;4772488;30;20059;-96
2022/09/26 06:32:13;;;;;;;11.30;5.45;;;10.50;99.90;;;;;;4776335;29;20051;-96
2022/09/26 06:34:40;;;;;;;10.40;5.28;;;10.50;99.90;;;;;;4782500;29;20086;-96
2022/09/26 06:37:08;;;;;;;10.32;5.20;;;10.40;99.90;;;;;;4790728;29;20059;-96
2022/09/26 06:50:44;;;;;;;;;;;;;;;;;;;;;
2022/09/26 06:57:27;;;;;;;10.98;4.93;;;10.40;99.90;;;;;;4797726;29;20054;-89
2022/09/26 07:04:26;;;;;;;9.38;4.93;;;10.20;99.90;;;;;;4744850;30;20587;-89
2022/09/26 07:15:04;;;;;;;;;;;;;;;;;;;;;
2022/09/26 07:18:41;;;;;;;;;;;;;;;;;;;;;
2022/09/26 07:21:48;;;;;;;;;;;;;;;;;;;;;
2022/09/26 07:28:56;;;;;;;11.98;5.13;;;10.50;99.90;;;;;;4805036;29;20119;-91
2022/09/26 07:32:36;;;;;;;;;;;;;;;;;;;;;
2022/09/26 08:09:01;;;;;;;;;;;;;;;;;;;;;
2022/09/26 08:39:13;;;;;;;;;;;;;;;;;;;;;
2022/09/26 08:42:27;;;;;;;8.32;2.30;;;11.30;99.90;;;;;;4796690;29;20527;-89
2022/09/26 08:49:24;;;;;;;5.40;2.45;;;11.00;99.90;;;;;;4808173;29;20055;-88
2022/09/26 08:52:35;;;;;;;8.60;2.72;;;10.90;99.90;;;;;;4794804;29;20055;-90
2022/09/26 08:55:22;;;;;;;6.28;2.70;;;11.40;99.90;;;;;;4788799;29;20096;-89
2022/09/26 08:58:15;;;;;;;8.93;2.58;;;11.30;99.90;;;;;;4793692;29;20056;-89
2022/09/26 09:04:27;;;;;;;;;;;11.30;99.90;;;;;;4791384;29;20130;-89
2022/09/26 09:07:29;;;;;;;;;;;;;;;;;;;;;
2022/09/26 15:09:33;;;;;;;3.17;1.48;;;13.20;99.90;;;;;;4803552;29;20130;-91
2022/09/26 15:12:38;;;;;;;8.93;1.88;;;13.30;99.90;;;;;;4787427;29;20412;-89
2022/09/26 15:16:08;;;;;;;;;;;;;;;;;;;;;
2022/09/26 15:19:41;;;;;;;5.68;1.67;;;13.30;99.90;;;;;;4788065;29;20055;-90
2022/09/26 15:22:32;;;;;;;6.07;2.10;;;13.30;99.90;;;;;;4771538;29;20047;-89
2022/09/26 15:29:31;;;;;;;;;;;;;;;;;;;;;
2022/09/26 15:33:06;;;;;;;;;;;;;;;;;;;;;
2022/09/26 15:36:42;;;;;;;;;;;;;;;;;;;;;
2022/09/26 15:40:27;;;;;;;;;;;;;;;;;;;;;
2022/09/26 15:51:42;;;;;;;6.80;2.33;;;13.10;99.90;;;;;;4853920;24;20059;-90
2022/09/26 15:55:10;;;;;;;8.45;2.10;;;13.00;99.90;;;;;;4790753;29;20051;-89
2022/09/26 15:57:30;;;;;;;7.43;2.25;;;13.00;99.90;;;;;;4808854;29;20133;-91
2022/09/26 16:15:35;;;;;;;9.77;3.10;;;12.70;99.90;;;;;;4810928;29;20046;-87
2022/09/26 16:18:01;;;;;;;13.27;2.30;;;12.70;99.90;;;;;;4819637;29;20241;-86
2022/09/26 16:20:30;;;;;;;13.60;2.72;;;12.60;99.90;;;;;;4828442;29;20066;-86
2022/09/26 16:23:02;;;;;;;9.77;3.00;;;12.60;99.90;;;;;;4784261;29;20055;-87
2022/09/26 16:26:18;;;;;;;9.38;2.65;;;12.60;99.90;;;;;;4786236;29;20047;-88
2022/09/26 16:29:14;;;;;;;9.23;2.30;;;11.60;99.90;;;;;;4815870;29;20087;-87
2022/09/26 16:31:45;;;;;;;11.93;2.67;;;12.50;99.90;;;;;;4786989;29;20043;-87
2022/09/26 16:34:31;;;;;;;;;;;;;;;;;;;;;
2022/09/26 16:37:19;;;;;;;12.60;2.67;;;12.50;99.90;;;;;;4803970;29;20507;-86
2022/09/26 16:39:58;;;;;;;9.27;2.60;;;12.70;99.90;;;;;;4787870;29;20050;-88
2022/09/26 16:42:30;;;;;;;10.00;2.10;;;12.70;99.90;;;;;;4788534;29;20063;-88
2022/09/26 16:45:17;;;;;;;10.95;2.50;;;12.70;99.90;;;;;;4790041;29;20053;-89
2022/09/26 16:47:54;;;;;;;;;;;;;;;;;;;;;
2022/09/26 16:50:27;;;;;;;14.57;2.55;;;12.60;99.90;;;;;;4787745;29;20043;-89
2022/09/26 16:52:57;;;;;;;12.38;2.50;;;12.50;99.90;;;;;;4788222;29;20053;-90
2022/09/26 16:55:29;;;;;;;9.40;1.88;;;12.50;99.90;;;;;;4788727;29;20054;-91
2022/09/26 16:57:57;;;;;;;9.77;1.92;;;12.50;99.90;;;;;;4803664;29;20082;-90
2022/09/26 17:03:25;;;;;;;14.23;2.45;;;12.30;99.90;;;;;;4788172;29;20146;-90
2022/09/26 17:05:54;;;;;;;13.45;2.42;;;12.40;99.90;;;;;;4817746;29;20055;-88
2022/09/26 17:08:24;;;;;;;15.13;2.10;;;12.30;99.90;;;;;;4788082;29;20047;-89
2022/09/26 17:10:52;;;;;;;10.55;1.40;;;12.20;99.90;;;;;;4800769;29;20138;-89
2022/09/26 17:13:33;;;;;;;;;;;;;;;;;;;;;
2022/09/26 17:16:34;;;;;;;10.85;2.03;;;12.10;99.90;;;;;;4811983;29;20130;-90
2022/09/26 17:23:50;;;;;;;14.27;2.30;;;11.80;99.90;;;;;;4773354;29;20058;-90
2022/09/26 17:26:30;;;;;;;;;;;;;;;;;;;;;
2022/09/26 17:29:36;;;;;;;11.98;2.03;;;11.60;99.90;;;;;;4792344;29;20089;-89
2022/09/26 17:32:11;;;;;;;;;;;11.50;99.90;;;;;;4790992;29;20062;-90
2022/09/26 17:35:26;;;;;;;15.15;2.75;;;11.10;99.90;;;;;;4789479;29;20266;-88
2022/09/26 17:40:49;;;;;;;;;;;;;;;;;;;;;
2022/09/26 17:44:08;;;;;;;;;;;;;;;;;;;;;
2022/09/26 17:47:25;;;;;;;18.95;5.35;;;11.20;99.90;;;;;;4803124;29;20065;-91
2022/09/26 17:50:07;;;;;;;12.32;3.90;;;11.10;99.90;;;;;;4803163;29;20042;-90
2022/09/26 17:53:07;;;;;;;;;;;;;;;;;;;;;
2022/09/26 17:57:00;;;;;;;;;;;;;;;;;;;;;
2022/09/26 17:59:32;;;;;;;15.55;5.10;;;10.90;99.90;;;;;;4798282;29;20603;-90
2022/09/26 18:02:43;;;;;;;;;;;;;;;;;;;;;
2022/09/26 22:46:11;;;;;;;12.13;1.60;;;10.80;99.90;;;;;;4779119;30;20055;-85
2022/09/26 22:51:57;;;;;;;11.10;1.10;;;10.50;99.90;;;;;;4736162;30;20090;-87
2022/09/26 22:55:44;;;;;;;;;;;;;;;;;;;;;
2022/09/26 23:03:43;;;;;;;;;;;;;;;;;;;;;
2022/09/26 23:07:36;;;;;;;;;;;;;;;;;;;;;
